Time;durP1;ratioP1;P1;durP2;ratioP2;P2;SDS_P1;SDS_P2;PMS_P1;PMS_P2;Temp;Humidity;BMP_temperature;BMP_pressure;BME280_temperature;BME280_humidity;BME280_pressure;Samples;Min_cycle;Max_cycle;Signal;HPM_P1;HPM_P2
2023/11/12 00:07:47;;;;;;;30;16.5;;;;;;;6.99;90.33;;;;;
2023/11/12 00:18:47;;;;;;;35.8;21.2;;;;;;;7.19;90.11;;;;;
2023/11/12 00:28:47;;;;;;;35.8;21.2;;;;;;;7.15;90.12;;;;;
2023/11/12 00:39:47;;;;;;;35.8;21.2;;;;;;;7.17;89.9;;;;;
2023/11/12 00:49:48;;;;;;;34.1;19;;;;;;;7.25;89.59;;;;;
2023/11/12 00:59:47;;;;;;;34.1;19;;;;;;;7.14;89.86;;;;;
2023/11/12 01:10:47;;;;;;;30.6;18.2;;;;;;;7.24;89.79;;;;;
2023/11/12 01:21:47;;;;;;;30.6;18.2;;;;;;;7.25;89.29;;;;;
2023/11/12 01:32:52;;;;;;;30.6;18.2;;;;;;;6.86;89.56;;;;;
2023/11/12 01:43:47;;;;;;;33.4;20.5;;;;;;;6.73;89.98;;;;;
2023/11/12 01:54:47;;;;;;;33.4;20.5;;;;;;;6.88;89.71;;;;;
2023/11/12 02:04:48;;;;;;;33.4;20.5;;;;;;;6.64;89.73;;;;;
2023/11/12 02:14:47;;;;;;;25.8;17.1;;;;;;;6.72;89.46;;;;;
2023/11/12 02:25:47;;;;;;;25.8;17.1;;;;;;;6.64;89.78;;;;;
2023/11/12 02:36:47;;;;;;;25.8;17.1;;;;;;;6.39;90.23;;;;;
2023/11/12 02:47:47;;;;;;;31.1;18.8;;;;;;;6.56;89.87;;;;;
2023/11/12 02:57:47;;;;;;;31.1;18.8;;;;;;;6.59;89.92;;;;;
2023/11/12 03:07:47;;;;;;;31.1;18.8;;;;;;;6.52;89.8;;;;;
2023/11/12 03:18:49;;;;;;;30.2;17;;;;;;;6.46;89.79;;;;;
2023/11/12 03:29:47;;;;;;;30.2;17;;;;;;;6.52;89.37;;;;;
2023/11/12 03:40:48;;;;;;;26.9;15.9;;;;;;;6.51;89.63;;;;;
2023/11/12 03:50:47;;;;;;;26.9;15.9;;;;;;;6.41;90.06;;;;;
2023/11/12 04:01:47;;;;;;;26.9;15.9;;;;;;;6.46;89.42;;;;;
2023/11/12 04:12:47;;;;;;;17.7;10;;;;;;;6.39;89.25;;;;;
2023/11/12 04:23:48;;;;;;;17.7;10;;;;;;;6.16;89.57;;;;;
2023/11/12 04:34:47;;;;;;;17.7;10;;;;;;;6.06;89.75;;;;;
2023/11/12 04:45:47;;;;;;;12.5;6.3;;;;;;;6.01;90.14;;;;;
2023/11/12 04:55:47;;;;;;;12.5;6.3;;;;;;;5.94;90.06;;;;;
2023/11/12 05:06:47;;;;;;;12.5;6.3;;;;;;;5.82;89.99;;;;;
2023/11/12 05:16:47;;;;;;;15.1;7.9;;;;;;;5.93;89.85;;;;;
2023/11/12 05:27:47;;;;;;;15.1;7.9;;;;;;;6.01;89.6;;;;;
2023/11/12 05:37:47;;;;;;;15.1;7.9;;;;;;;5.88;89.82;;;;;
2023/11/12 05:48:47;;;;;;;16.1;8.3;;;;;;;5.71;90.23;;;;;
2023/11/12 05:59:47;;;;;;;16.1;8.3;;;;;;;5.81;90.04;;;;;
2023/11/12 06:09:47;;;;;;;17.3;7.9;;;;;;;5.77;89.85;;;;;
2023/11/12 06:20:48;;;;;;;17.3;7.9;;;;;;;5.9;89.57;;;;;
2023/11/12 06:31:47;;;;;;;17.3;7.9;;;;;;;5.77;89.6;;;;;
2023/11/12 06:41:47;;;;;;;17.1;8;;;;;;;5.78;89.33;;;;;
2023/11/12 06:51:47;;;;;;;17.1;8;;;;;;;5.81;89.34;;;;;
2023/11/12 07:02:47;;;;;;;17.1;8;;;;;;;5.89;89.31;;;;;
2023/11/12 07:12:47;;;;;;;10;5.4;;;;;;;5.97;88.91;;;;;
2023/11/12 07:23:47;;;;;;;10;5.4;;;;;;;5.93;88.79;;;;;
2023/11/12 07:33:47;;;;;;;10;5.4;;;;;;;5.92;88.92;;;;;
2023/11/12 07:44:47;;;;;;;9.1;4.2;;;;;;;5.9;88.86;;;;;
2023/11/12 07:54:47;;;;;;;9.1;4.2;;;;;;;5.83;89.29;;;;;
2023/11/12 08:05:47;;;;;;;9.1;4.2;;;;;;;5.93;89.11;;;;;
2023/11/12 08:16:48;;;;;;;6.9;3.7;;;;;;;6.12;88.65;;;;;
2023/11/12 08:26:47;;;;;;;6.9;3.7;;;;;;;6.07;88.81;;;;;
2023/11/12 08:36:48;;;;;;;6.9;3.7;;;;;;;6.1;88.3;;;;;
2023/11/12 08:47:47;;;;;;;8;4.4;;;;;;;6.1;88.08;;;;;
2023/11/12 08:57:47;;;;;;;8;4.4;;;;;;;6.14;88.03;;;;;
2023/11/12 09:08:47;;;;;;;8;4.4;;;;;;;6.13;88.16;;;;;
2023/11/12 09:18:47;;;;;;;8.2;4.5;;;;;;;6.14;87.9;;;;;
2023/11/12 09:29:48;;;;;;;8.2;4.5;;;;;;;5.99;87.97;;;;;
2023/11/12 09:40:47;;;;;;;11.6;6;;;;;;;6.09;87.23;;;;;
2023/11/12 09:50:48;;;;;;;11.6;6;;;;;;;6.06;87.33;;;;;
2023/11/12 10:01:48;;;;;;;11.6;6;;;;;;;6.16;87.41;;;;;
2023/11/12 10:11:47;;;;;;;12.2;6.3;;;;;;;6.3;87.11;;;;;
2023/11/12 10:21:48;;;;;;;12.2;6.3;;;;;;;6.62;86.34;;;;;
2023/11/12 10:31:48;;;;;;;12.2;6.3;;;;;;;6.56;85.07;;;;;
2023/11/12 10:41:48;;;;;;;11.2;6;;;;;;;6.51;85.24;;;;;
2023/11/12 10:52:47;;;;;;;11.2;6;;;;;;;6.79;84.83;;;;;
2023/11/12 11:03:48;;;;;;;11.2;6;;;;;;;7.33;83.31;;;;;
2023/11/12 11:13:48;;;;;;;8.5;4.8;;;;;;;7.7;80.08;;;;;
2023/11/12 11:23:49;;;;;;;8.5;4.8;;;;;;;7.82;78.93;;;;;
2023/11/12 11:33:47;;;;;;;8.5;4.8;;;;;;;8.02;79.99;;;;;
2023/11/12 11:43:47;;;;;;;8.2;4.3;;;;;;;8.01;78.71;;;;;
2023/11/12 11:54:47;;;;;;;8.2;4.3;;;;;;;8.36;78.47;;;;;
2023/11/12 12:05:48;;;;;;;8.2;4.3;;;;;;;8.32;77.37;;;;;
2023/11/12 12:16:47;;;;;;;7.3;4.3;;;;;;;8.48;76.88;;;;;
2023/11/12 12:26:48;;;;;;;7.3;4.3;;;;;;;8.37;73.92;;;;;
2023/11/12 12:37:48;;;;;;;7.3;4.3;;;;;;;8.26;74.39;;;;;
2023/11/12 12:48:47;;;;;;;6.3;3.5;;;;;;;8.52;74.83;;;;;
2023/11/12 12:58:48;;;;;;;6.3;3.5;;;;;;;8.13;71.93;;;;;
2023/11/12 13:08:48;;;;;;;6.3;3.5;;;;;;;8.29;73.65;;;;;
2023/11/12 13:19:49;;;;;;;9.2;3.6;;;;;;;8.44;72.74;;;;;
2023/11/12 13:29:48;;;;;;;9.2;3.6;;;;;;;8.44;73.54;;;;;
2023/11/12 13:39:50;;;;;;;8.2;4.6;;;;;;;8.32;73.38;;;;;
2023/11/12 13:49:48;;;;;;;8.2;4.6;;;;;;;8.14;74.61;;;;;
2023/11/12 13:59:49;;;;;;;8.2;4.6;;;;;;;8.1;74.45;;;;;
2023/11/12 14:09:48;;;;;;;7.7;3.6;;;;;;;8.05;74.75;;;;;
2023/11/12 14:19:49;;;;;;;7.7;3.6;;;;;;;8.05;75.12;;;;;
2023/11/12 14:29:48;;;;;;;7.7;3.6;;;;;;;8.04;75.69;;;;;
2023/11/12 14:39:48;;;;;;;8.4;4.6;;;;;;;7.87;76.83;;;;;
2023/11/12 14:50:48;;;;;;;8.4;4.6;;;;;;;7.63;76.84;;;;;
2023/11/12 15:00:50;;;;;;;8.4;4.6;;;;;;;7.55;76.96;;;;;
2023/11/12 15:11:48;;;;;;;9.5;4.4;;;;;;;7.43;76.41;;;;;
2023/11/12 15:21:47;;;;;;;9.5;4.4;;;;;;;7.11;76.6;;;;;
2023/11/12 15:31:48;;;;;;;9.5;4.4;;;;;;;6.69;77.42;;;;;
2023/11/12 15:42:48;;;;;;;6.9;4;;;;;;;6.52;79.01;;;;;
2023/11/12 15:53:48;;;;;;;6.9;4;;;;;;;6.59;78.7;;;;;
2023/11/12 16:04:48;;;;;;;6.9;4;;;;;;;6.52;78.55;;;;;
2023/11/12 16:14:48;;;;;;;8.9;4.5;;;;;;;6.19;78.82;;;;;
2023/11/12 16:24:48;;;;;;;8.9;4.5;;;;;;;6.08;79.1;;;;;
2023/11/12 16:35:48;;;;;;;8.9;4.5;;;;;;;5.86;78.9;;;;;
2023/11/12 16:46:48;;;;;;;8.6;4.8;;;;;;;5.77;79.46;;;;;
2023/11/12 16:57:48;;;;;;;8.6;4.8;;;;;;;5.84;79.57;;;;;
2023/11/12 17:08:48;;;;;;;9.5;4.8;;;;;;;5.93;79.71;;;;;
2023/11/12 17:18:48;;;;;;;9.5;4.8;;;;;;;5.91;79.7;;;;;
2023/11/12 17:29:48;;;;;;;9.5;4.8;;;;;;;5.73;79.41;;;;;
2023/11/12 17:40:48;;;;;;;9.2;4.8;;;;;;;5.73;78.82;;;;;
2023/11/12 17:50:48;;;;;;;9.2;4.8;;;;;;;5.71;78.5;;;;;
2023/11/12 18:01:50;;;;;;;9.2;4.8;;;;;;;5.86;77.66;;;;;
2023/11/12 18:11:48;;;;;;;8;4.2;;;;;;;5.83;77.59;;;;;
2023/11/12 18:21:49;;;;;;;8;4.2;;;;;;;5.84;77.43;;;;;
2023/11/12 18:31:48;;;;;;;8;4.2;;;;;;;5.83;77.63;;;;;
2023/11/12 18:41:48;;;;;;;10.5;4.3;;;;;;;5.66;77.68;;;;;
2023/11/12 18:51:48;;;;;;;10.5;4.3;;;;;;;5.66;77.67;;;;;
2023/11/12 19:01:48;;;;;;;10.5;4.3;;;;;;;5.54;77.77;;;;;
2023/11/12 19:12:48;;;;;;;8.1;4.1;;;;;;;5.26;77.93;;;;;
2023/11/12 19:22:48;;;;;;;8.1;4.1;;;;;;;4.93;78.21;;;;;
2023/11/12 19:33:49;;;;;;;8.1;4.1;;;;;;;4.56;78.38;;;;;
2023/11/12 19:43:48;;;;;;;13.3;7.9;;;;;;;4.42;79.23;;;;;
2023/11/12 19:54:48;;;;;;;13.3;7.9;;;;;;;4.37;81.12;;;;;
2023/11/12 20:04:48;;;;;;;13.3;7.9;;;;;;;4.21;81.36;;;;;
2023/11/12 20:15:51;;;;;;;13.1;5.6;;;;;;;4.1;81.3;;;;;
2023/11/12 20:25:48;;;;;;;13.1;5.6;;;;;;;4.04;80.68;;;;;
2023/11/12 20:36:50;;;;;;;13.1;5.6;;;;;;;3.69;80.6;;;;;
2023/11/12 20:46:48;;;;;;;12.4;6;;;;;;;3.36;80.35;;;;;
2023/11/12 20:57:48;;;;;;;12.4;6;;;;;;;3.19;82.77;;;;;
2023/11/12 21:08:48;;;;;;;10.4;6;;;;;;;3.23;84.1;;;;;
2023/11/12 21:18:50;;;;;;;10.4;6;;;;;;;3.28;84.31;;;;;
2023/11/12 21:28:48;;;;;;;10.4;6;;;;;;;3.34;83.85;;;;;
2023/11/12 21:39:48;;;;;;;10;5.5;;;;;;;3.43;83.47;;;;;
2023/11/12 21:50:48;;;;;;;10;5.5;;;;;;;3.51;83.46;;;;;
2023/11/12 22:00:48;;;;;;;10;5.5;;;;;;;3.74;83.57;;;;;
2023/11/12 22:11:50;;;;;;;9;4.8;;;;;;;4.05;83.43;;;;;
2023/11/12 22:21:48;;;;;;;9;4.8;;;;;;;4.27;83.12;;;;;
2023/11/12 22:31:48;;;;;;;9;4.8;;;;;;;4.5;82.92;;;;;
2023/11/12 22:42:49;;;;;;;11.9;6.1;;;;;;;4.75;82.45;;;;;
2023/11/12 22:52:48;;;;;;;11.9;6.1;;;;;;;4.93;82.16;;;;;
2023/11/12 23:03:48;;;;;;;11.9;6.1;;;;;;;4.99;81.69;;;;;
2023/11/12 23:13:48;;;;;;;9.6;4.8;;;;;;;5.27;81.56;;;;;
2023/11/12 23:24:48;;;;;;;9.6;4.8;;;;;;;5.23;80.64;;;;;
2023/11/12 23:35:48;;;;;;;9.6;4.8;;;;;;;5.43;80.09;;;;;
2023/11/12 23:46:48;;;;;;;7.4;3.8;;;;;;;5.48;79.79;;;;;
2023/11/12 23:57:48;;;;;;;7.4;3.8;;;;;;;5.58;79.08;;;;;
